createdAt,value
2022-08-04T00:01:46.369Z,100025.03
2022-08-04T00:05:01.818Z,100043.50
2022-08-04T00:08:07.893Z,100061.25
2022-08-04T00:10:59.137Z,100071.69
2022-08-04T00:14:03.013Z,100074.00
2022-08-04T00:16:54.618Z,100079.78
2022-08-04T00:19:48.357Z,100101.00
2022-08-04T00:22:36.911Z,100093.84
2022-08-04T00:25:26.315Z,100095.66
2022-08-04T00:28:14.772Z,100117.16
2022-08-04T00:31:03.208Z,100105.22
2022-08-04T00:33:57.555Z,100125.91
2022-08-04T00:36:46.691Z,100123.06
2022-08-04T00:39:35.265Z,100115.53
2022-08-04T00:42:58.273Z,100118.75
2022-08-04T00:46:14.972Z,100119.13
2022-08-04T00:49:44.054Z,100117.53
2022-08-04T00:52:47.433Z,100120.13
2022-08-04T00:56:03.010Z,100144.59
2022-08-04T00:59:07.201Z,100139.25
2022-08-04T01:02:06.946Z,100151.53
2022-08-04T01:05:22.846Z,100157.28
2022-08-04T01:08:26.317Z,100170.56
2022-08-04T01:11:57.034Z,100166.31
2022-08-04T01:15:06.141Z,100191.41
2022-08-04T01:18:07.625Z,100191.72
2022-08-04T01:21:31.136Z,100194.25
2022-08-04T01:24:47.666Z,100200.38
2022-08-04T01:27:57.795Z,100195.00
2022-08-04T01:30:49.537Z,100198.44
2022-08-04T01:34:03.162Z,100201.44
2022-08-04T01:37:09.454Z,100203.25
2022-08-04T01:40:08.950Z,100192.47
2022-08-04T01:43:00.641Z,100199.19
2022-08-04T01:45:59.530Z,100191.91
2022-08-04T01:48:54.348Z,100202.53
2022-08-04T01:51:44.397Z,100204.06
2022-08-04T01:54:33.094Z,100195.38
2022-08-04T01:57:21.945Z,100200.03
2022-08-04T02:00:29.280Z,100206.53
2022-08-04T02:03:18.241Z,100215.53
2022-08-04T02:06:38.710Z,100204.38
2022-08-04T02:09:27.104Z,100213.03
2022-08-04T02:12:47.129Z,100207.94
2022-08-04T02:15:58.223Z,100197.59
2022-08-04T02:19:14.711Z,100201.06
2022-08-04T02:22:16.511Z,100187.72
2022-08-04T02:25:10.805Z,100184.94
2022-08-04T02:28:24.819Z,100173.88
2022-08-04T02:31:36.333Z,100175.88
2022-08-04T02:34:58.561Z,100191.59
2022-08-04T02:38:37.465Z,100190.56
2022-08-04T02:41:28.084Z,100178.56
2022-08-04T02:44:23.783Z,100179.59
2022-08-04T02:47:12.684Z,100174.88
2022-08-04T02:50:02.772Z,100184.06
2022-08-04T02:52:53.440Z,100168.56
2022-08-04T02:55:50.808Z,100172.63
2022-08-04T02:58:46.940Z,100185.09
2022-08-04T03:01:36.148Z,100202.34
2022-08-04T03:04:58.634Z,100178.56
2022-08-04T03:08:05.465Z,100197.19
2022-08-04T03:11:38.482Z,100201.97
2022-08-04T03:14:33.050Z,100208.34
2022-08-04T03:17:57.230Z,100205.50
2022-08-04T03:21:05.722Z,100216.13
2022-08-04T03:24:24.208Z,100227.00
2022-08-04T03:27:40.307Z,100248.72
2022-08-04T03:30:37.657Z,100257.66
2022-08-04T03:33:56.387Z,100251.59
2022-08-04T03:37:18.484Z,100256.94
2022-08-04T03:40:50.324Z,100250.66
2022-08-04T03:43:57.615Z,100237.94
2022-08-04T03:47:06.644Z,100240.00
2022-08-04T03:50:44.537Z,100258.34
2022-08-04T03:53:46.893Z,100267.69
2022-08-04T03:57:02.718Z,100259.47
2022-08-04T04:00:20.670Z,100290.63
2022-08-04T04:03:44.418Z,100305.63
2022-08-04T04:06:53.752Z,100298.00
2022-08-04T04:09:56.821Z,100297.38
2022-08-04T04:13:06.237Z,100293.06
2022-08-04T04:16:31.495Z,100315.31
2022-08-04T04:19:35.046Z,100318.59
2022-08-04T04:23:03.168Z,100352.34
2022-08-04T04:26:14.636Z,100362.41
2022-08-04T04:29:26.669Z,100376.72
2022-08-04T04:32:44.321Z,100385.59
2022-08-04T04:35:42.318Z,100385.09
2022-08-04T04:39:20.216Z,100390.97
2022-08-04T04:42:20.438Z,100389.69
2022-08-04T04:45:34.854Z,100384.09
2022-08-04T04:48:41.771Z,100389.41
2022-08-04T04:51:57.113Z,100392.00
2022-08-04T04:54:53.936Z,100406.44
2022-08-04T04:57:53.156Z,100423.97
2022-08-04T05:00:47.695Z,100431.97
2022-08-04T05:04:24.502Z,100395.69
2022-08-04T05:07:29.545Z,100414.69
2022-08-04T05:10:26.787Z,100418.38
2022-08-04T05:14:38.963Z,100421.56
2022-08-04T05:16:48.044Z,100422.38
2022-08-04T05:19:45.350Z,100432.88
2022-08-04T05:22:48.508Z,100430.69
2022-08-04T05:25:59.839Z,100434.09
2022-08-04T05:28:58.326Z,100457.47
2022-08-04T05:31:53.155Z,100455.88
2022-08-04T05:35:03.524Z,100454.22
2022-08-04T05:38:01.148Z,100434.88
2022-08-04T05:40:51.464Z,100438.84
2022-08-04T05:43:43.918Z,100428.88
2022-08-04T05:46:32.852Z,100414.63
2022-08-04T05:49:26.777Z,100421.44
2022-08-04T05:52:15.914Z,100419.78
2022-08-04T05:55:05.186Z,100409.03
2022-08-04T05:57:55.788Z,100393.94
2022-08-04T06:00:52.188Z,100389.16
2022-08-04T06:03:44.201Z,100376.94
2022-08-04T06:06:32.840Z,100368.25
2022-08-04T06:09:21.367Z,100354.53
2022-08-04T06:12:28.431Z,100358.84
2022-08-04T06:15:20.981Z,100348.19
2022-08-04T06:19:58.817Z,100351.19
2022-08-04T06:21:25.153Z,100340.25
2022-08-04T06:24:19.053Z,100344.56
2022-08-04T06:27:08.329Z,100346.81
2022-08-04T06:29:59.322Z,100321.34
2022-08-04T06:33:04.178Z,100320.34
2022-08-04T06:35:55.495Z,100312.25
2022-08-04T06:38:44.438Z,100297.16
2022-08-04T06:41:33.625Z,100291.34
2022-08-04T06:44:26.813Z,100292.00
2022-08-04T06:47:19.552Z,100296.72
2022-08-04T06:51:31.438Z,100275.31
2022-08-04T06:53:20.036Z,100251.44
2022-08-04T06:56:09.950Z,100275.88
2022-08-04T06:59:01.303Z,100274.56
2022-08-04T07:01:51.907Z,100291.81
2022-08-04T07:04:40.983Z,100246.88
2022-08-04T07:07:36.911Z,100249.94
2022-08-04T07:10:38.210Z,100243.03
2022-08-04T07:13:28.895Z,100263.56
2022-08-04T07:16:18.704Z,100250.16
2022-08-04T07:19:10.314Z,100227.03
2022-08-04T07:22:24.334Z,100200.34
2022-08-04T07:25:16.609Z,100198.28
2022-08-04T07:28:05.236Z,100192.13
2022-08-04T07:30:55.565Z,100180.47
2022-08-04T07:33:45.139Z,100205.09
2022-08-04T07:36:56.271Z,100174.81
2022-08-04T07:39:48.414Z,100117.59
2022-08-04T07:42:37.621Z,100119.50
2022-08-04T07:45:26.384Z,100112.16
2022-08-04T07:48:15.667Z,100095.22
2022-08-04T07:51:04.116Z,100093.81
2022-08-04T07:53:56.850Z,100096.59
2022-08-04T07:56:46.500Z,100103.81
2022-08-04T07:59:36.146Z,100062.34
2022-08-04T08:02:24.984Z,100099.59
2022-08-04T08:05:16.802Z,100068.19
2022-08-04T08:08:05.575Z,99969.94
2022-08-04T08:10:53.925Z,100049.34
2022-08-04T08:13:43.610Z,100038.72
2022-08-04T08:16:34.770Z,99955.66
2022-08-04T08:19:23.375Z,99970.19
2022-08-04T08:22:12.288Z,99998.81
2022-08-04T08:25:01.204Z,99957.13
2022-08-04T08:27:56.286Z,99995.16
2022-08-04T08:30:44.911Z,99968.72
2022-08-04T08:33:33.344Z,99946.91
2022-08-04T08:36:27.287Z,99917.25
2022-08-04T08:39:41.277Z,99965.91
2022-08-04T08:42:52.830Z,99940.66
2022-08-04T08:46:14.758Z,99922.31
2022-08-04T08:50:02.710Z,99904.50
2022-08-04T08:53:01.220Z,99839.72
2022-08-04T08:56:09.005Z,99868.41
2022-08-04T08:59:30.581Z,99864.81
2022-08-04T09:02:46.392Z,99872.47
2022-08-04T09:05:47.958Z,99879.97
2022-08-04T09:09:43.584Z,99748.50
2022-08-04T09:12:54.285Z,99768.53
2022-08-04T09:16:11.019Z,99719.50
2022-08-04T09:19:38.637Z,99718.94
2022-08-04T09:22:45.368Z,99763.56
2022-08-04T09:25:50.248Z,99721.00
2022-08-04T09:28:54.021Z,99741.16
2022-08-04T09:32:07.800Z,99681.34
2022-08-04T09:36:09.556Z,99667.13
2022-08-04T09:39:22.259Z,99583.91
2022-08-04T09:42:17.350Z,99600.94
2022-08-04T09:45:26.738Z,99603.53
2022-08-04T09:48:52.368Z,99601.25
2022-08-04T09:51:58.451Z,99665.81
2022-08-04T09:55:17.132Z,99530.13
2022-08-04T09:58:37.322Z,99560.19
2022-08-04T10:01:29.149Z,99592.97
2022-08-04T10:04:20.134Z,99502.63
2022-08-04T10:07:36.134Z,99499.44
2022-08-04T10:11:07.692Z,99571.28
2022-08-04T10:14:39.457Z,99511.78
2022-08-04T10:17:50.423Z,99398.19
2022-08-04T10:21:10.453Z,99467.16
2022-08-04T10:25:02.862Z,99459.13
2022-08-04T10:28:06.667Z,99466.69
2022-08-04T10:31:07.477Z,99340.16
2022-08-04T10:34:22.702Z,99456.00
2022-08-04T10:37:59.007Z,99462.97
2022-08-04T10:40:46.744Z,99381.22
2022-08-04T10:43:55.755Z,99368.94
2022-08-04T10:46:57.499Z,99315.16
2022-08-04T10:49:51.676Z,99339.38
2022-08-04T10:52:55.977Z,99331.31
2022-08-04T10:56:07.226Z,99253.41
2022-08-04T10:59:04.455Z,99265.16
2022-08-04T11:02:05.067Z,99217.09
2022-08-04T11:05:26.174Z,99261.53
2022-08-04T11:08:45.594Z,99296.09
2022-08-04T11:12:00.159Z,99321.59
2022-08-04T11:15:00.129Z,99232.78
2022-08-04T11:18:05.115Z,99336.25
2022-08-04T11:21:16.830Z,99255.19
2022-08-04T11:24:16.454Z,99215.94
2022-08-04T11:27:13.363Z,99159.59
2022-08-04T11:30:13.196Z,99202.19
2022-08-04T11:33:25.950Z,99129.94
2022-08-04T11:36:46.978Z,99168.00
2022-08-04T11:40:07.489Z,99067.44
2022-08-04T11:43:10.400Z,99191.22
2022-08-04T11:46:04.313Z,99205.06
2022-08-04T11:49:09.437Z,99212.63
2022-08-04T11:52:01.394Z,99184.50
2022-08-04T11:54:52.607Z,99067.63
2022-08-04T11:57:44.382Z,99043.53
2022-08-04T12:00:33.252Z,99128.53
2022-08-04T12:03:59.755Z,99045.75
2022-08-04T12:07:40.517Z,99119.69
2022-08-04T12:11:22.840Z,99059.13
2022-08-04T12:14:44.579Z,99048.16
2022-08-04T12:17:53.341Z,99151.47
2022-08-04T12:20:49.113Z,99067.41
2022-08-04T12:23:40.936Z,99152.94
2022-08-04T12:26:38.295Z,99082.72
2022-08-04T12:29:31.836Z,99049.00
2022-08-04T12:32:33.016Z,99061.69
2022-08-04T12:36:10.837Z,99047.03
2022-08-04T12:39:11.998Z,99017.50
2022-08-04T12:42:20.867Z,99120.63
2022-08-04T12:45:11.555Z,99031.78
2022-08-04T12:48:01.154Z,99076.22
2022-08-04T12:50:58.323Z,99123.16
2022-08-04T12:53:51.235Z,99032.34
2022-08-04T12:56:42.201Z,99054.50
2022-08-04T12:59:30.900Z,99068.34
2022-08-04T13:02:32.024Z,99073.91
2022-08-04T13:05:22.717Z,99080.44
2022-08-04T13:08:13.186Z,99033.69
2022-08-04T13:11:02.056Z,98966.69
2022-08-04T13:14:17.340Z,99054.00
2022-08-04T13:17:05.697Z,99154.03
2022-08-04T13:19:55.647Z,99122.97
2022-08-04T13:22:46.585Z,99038.94
2022-08-04T13:26:42.821Z,99053.75
2022-08-04T13:28:54.762Z,99121.41
2022-08-04T13:31:52.900Z,99032.69
2022-08-04T13:34:48.924Z,99074.31
2022-08-04T13:37:40.754Z,99066.19
2022-08-04T13:40:30.681Z,99083.91
2022-08-04T13:44:15.742Z,99080.72
2022-08-04T13:47:14.164Z,99067.91
2022-08-04T13:50:20.562Z,99085.19
2022-08-04T13:53:09.085Z,99083.16
2022-08-04T13:56:00.590Z,99037.63
2022-08-04T13:58:56.130Z,99078.78
2022-08-04T14:02:07.615Z,99039.38
2022-08-04T14:05:04.203Z,99036.16
2022-08-04T14:08:04.840Z,99059.59
2022-08-04T14:10:58.023Z,99032.88
2022-08-04T14:13:46.813Z,99095.22
2022-08-04T14:16:35.433Z,98960.38
2022-08-04T14:19:27.938Z,99051.34
2022-08-04T14:22:28.218Z,98957.25
2022-08-04T14:25:18.557Z,99109.13
2022-08-04T14:28:07.109Z,99058.53
2022-08-04T14:31:16.906Z,99061.31
2022-08-04T14:34:09.726Z,99038.28
2022-08-04T14:37:16.883Z,99036.78
2022-08-04T14:40:17.888Z,99106.53
2022-08-04T14:43:09.838Z,99022.09
2022-08-04T14:46:05.834Z,98969.28
2022-08-04T14:49:10.718Z,99115.28
2022-08-04T14:52:03.040Z,99010.78
2022-08-04T14:54:51.710Z,99094.34
2022-08-04T14:58:34.748Z,99070.69
2022-08-04T15:00:49.778Z,99050.66
2022-08-04T15:03:50.032Z,99006.72
2022-08-04T15:06:41.806Z,98980.09
2022-08-04T15:09:30.710Z,99086.03
2022-08-04T15:12:19.038Z,99086.84
2022-08-04T15:15:34.015Z,99069.59
2022-08-04T15:18:16.013Z,98987.28
2022-08-04T15:21:05.704Z,98991.53
2022-08-04T15:23:55.494Z,99150.28
2022-08-04T15:26:49.834Z,99134.84
2022-08-04T15:29:59.237Z,99101.31
2022-08-04T15:32:53.625Z,99079.38
2022-08-04T15:35:46.370Z,99095.66
2022-08-04T15:38:51.690Z,99118.84
2022-08-04T15:42:16.214Z,99059.91
2022-08-04T15:45:17.473Z,99042.22
2022-08-04T15:48:05.644Z,98999.94
2022-08-04T15:50:59.310Z,99093.31
2022-08-04T15:54:02.841Z,99093.41
2022-08-04T15:57:02.782Z,99043.81
2022-08-04T16:00:02.999Z,99136.69
2022-08-04T16:03:00.259Z,99055.22
2022-08-04T16:05:50.131Z,99048.31
2022-08-04T16:08:57.634Z,99020.72
2022-08-04T16:11:46.879Z,99087.28
2022-08-04T16:14:36.199Z,99079.22
2022-08-04T16:17:28.712Z,99105.41
2022-08-04T16:20:17.368Z,99074.06
2022-08-04T16:23:52.438Z,99048.31
2022-08-04T16:26:45.372Z,99047.03
2022-08-04T16:29:41.881Z,99095.63
2022-08-04T16:32:42.126Z,99093.94
2022-08-04T16:35:30.814Z,99036.38
2022-08-04T16:38:19.399Z,99042.56
2022-08-04T16:41:07.671Z,99058.63
2022-08-04T16:44:52.616Z,99079.31
2022-08-04T16:47:51.502Z,99088.34
2022-08-04T16:50:53.681Z,99145.22
2022-08-04T16:53:52.289Z,99233.31
2022-08-04T16:56:43.190Z,99191.34
2022-08-04T16:59:31.806Z,99081.78
2022-08-04T17:02:26.427Z,99119.19
2022-08-04T17:05:38.465Z,99193.47
2022-08-04T17:08:31.646Z,99184.81
2022-08-04T17:11:20.586Z,99233.16
2022-08-04T17:14:09.533Z,99287.97
2022-08-04T17:17:01.419Z,99325.03
2022-08-04T17:19:55.974Z,99287.69
2022-08-04T17:22:44.263Z,99298.63
2022-08-04T17:25:52.169Z,99322.91
2022-08-04T17:28:47.448Z,99333.09
2022-08-04T17:31:38.365Z,99343.44
2022-08-04T17:34:29.013Z,99342.53
2022-08-04T17:37:38.523Z,99376.34
2022-08-04T17:40:26.826Z,99396.84
2022-08-04T17:44:05.062Z,99420.97
2022-08-04T17:46:37.459Z,99396.88
2022-08-04T17:49:28.681Z,99411.19
2022-08-04T17:52:37.224Z,99376.34
2022-08-04T17:55:49.285Z,99384.47
2022-08-04T17:58:37.891Z,99423.72
2022-08-04T18:01:26.094Z,99427.31
2022-08-04T18:04:34.590Z,99441.03
2022-08-04T18:08:38.393Z,99476.63
2022-08-04T18:10:56.228Z,99489.56
2022-08-04T18:13:54.386Z,99500.50
2022-08-04T18:16:46.278Z,99507.75
2022-08-04T18:19:36.056Z,99491.31
2022-08-04T18:22:37.617Z,99490.50
2022-08-04T18:25:48.110Z,99495.03
2022-08-04T18:28:35.063Z,99499.28
2022-08-04T18:31:23.242Z,99514.22
2022-08-04T18:34:19.071Z,99531.66
2022-08-04T18:38:02.892Z,99508.22
2022-08-04T18:40:30.031Z,99508.69
2022-08-04T18:43:28.433Z,99487.56
2022-08-04T18:46:19.026Z,99439.53
2022-08-04T18:49:08.258Z,99449.00
2022-08-04T18:52:16.506Z,99480.50
2022-08-04T18:55:13.186Z,99463.56
2022-08-04T18:58:26.723Z,99472.34
2022-08-04T19:01:16.290Z,99504.19
2022-08-04T19:04:04.845Z,99523.94
2022-08-04T19:08:01.458Z,99521.34
2022-08-04T19:10:26.437Z,99525.44
2022-08-04T19:13:25.594Z,99541.00
2022-08-04T19:16:16.939Z,99576.16
2022-08-04T19:19:10.538Z,99560.47
2022-08-04T19:22:02.017Z,99559.59
2022-08-04T19:24:50.827Z,99491.66
2022-08-04T19:27:18.843Z,99491.66
2022-08-04T19:30:07.269Z,99505.63
2022-08-04T19:32:39.650Z,99470.09
2022-08-04T19:35:11.053Z,99467.94
2022-08-04T19:37:58.173Z,99463.19
2022-08-04T19:40:33.599Z,99488.91
2022-08-04T19:43:14.398Z,99471.03
2022-08-04T19:45:44.946Z,99482.13
2022-08-04T19:48:18.979Z,99468.59
2022-08-04T19:50:48.528Z,99501.81
2022-08-04T19:53:19.882Z,99464.28
2022-08-04T19:55:49.555Z,99453.44
2022-08-04T19:58:38.708Z,99479.91
2022-08-04T20:01:31.212Z,99514.69
2022-08-04T20:04:09.538Z,99527.72
2022-08-04T20:06:52.220Z,99510.56
2022-08-04T20:09:25.478Z,99520.72
2022-08-04T20:11:57.366Z,99521.69
2022-08-04T20:14:32.490Z,99511.41
2022-08-04T20:17:10.146Z,99523.78
2022-08-04T20:19:39.818Z,99583.47
2022-08-04T20:22:46.272Z,99571.44
2022-08-04T20:25:11.042Z,99578.13
2022-08-04T20:27:59.475Z,99606.38
2022-08-04T20:30:29.995Z,99594.56
2022-08-04T20:33:00.850Z,99595.97
2022-08-04T20:35:30.370Z,99621.03
2022-08-04T20:38:01.472Z,99601.09
2022-08-04T20:40:30.596Z,99577.47
2022-08-04T20:42:59.859Z,99559.97
2022-08-04T20:45:55.848Z,99545.94
2022-08-04T20:48:15.786Z,99521.38
2022-08-04T20:50:47.977Z,99506.63
2022-08-04T20:53:17.360Z,99506.94
2022-08-04T20:55:54.822Z,99492.53
2022-08-04T20:58:27.383Z,99476.34
2022-08-04T21:00:57.367Z,99447.50
2022-08-04T21:03:49.917Z,99413.28
2022-08-04T21:06:13.855Z,99395.16
2022-08-04T21:08:56.733Z,99388.41
2022-08-04T21:11:32.794Z,99379.06
2022-08-04T21:14:01.758Z,99370.16
2022-08-04T21:16:56.035Z,99361.25
2022-08-04T21:19:18.014Z,99353.03
2022-08-04T21:21:53.257Z,99357.19
2022-08-04T21:24:26.304Z,99352.34
2022-08-04T21:26:57.173Z,99369.69
2022-08-04T21:29:29.552Z,99377.25
2022-08-04T21:32:07.775Z,99372.09
2022-08-04T21:34:39.618Z,99367.00
2022-08-04T21:37:12.086Z,99361.28
2022-08-04T21:39:51.075Z,99358.66
2022-08-04T21:42:42.637Z,99358.56
2022-08-04T21:45:16.419Z,99361.19
2022-08-04T21:47:49.517Z,99370.88
2022-08-04T21:50:19.952Z,99360.38
2022-08-04T21:52:49.853Z,99353.00
2022-08-04T21:55:19.011Z,99371.34
2022-08-04T21:57:49.537Z,99368.81
2022-08-04T22:00:19.716Z,99376.19
2022-08-04T22:05:36.505Z,99390.09
2022-08-04T22:08:04.988Z,99394.41
2022-08-04T22:10:33.309Z,99415.88
2022-08-04T22:13:07.000Z,99399.19
2022-08-04T22:16:04.262Z,99415.78
2022-08-04T22:18:27.905Z,99417.75
2022-08-04T22:20:56.429Z,99403.81
2022-08-04T22:23:25.467Z,99415.66
2022-08-04T22:25:56.126Z,99414.53
2022-08-04T22:28:28.551Z,99409.38
2022-08-04T22:30:57.783Z,99412.63
2022-08-04T22:33:54.509Z,99418.69
2022-08-04T22:36:16.546Z,99423.53
2022-08-04T22:38:51.081Z,99428.88
2022-08-04T22:41:22.083Z,99437.28
2022-08-04T22:44:02.101Z,99464.72
2022-08-04T22:46:30.574Z,99460.03
2022-08-04T22:48:58.670Z,99480.16
2022-08-04T22:51:27.181Z,99489.06
2022-08-04T22:53:55.278Z,99503.28
2022-08-04T22:56:38.066Z,99514.78
2022-08-04T22:59:09.997Z,99532.72
2022-08-04T23:01:59.836Z,99553.47
2022-08-04T23:04:27.494Z,99579.81
2022-08-04T23:06:55.496Z,99587.56
2022-08-04T23:09:48.998Z,99601.41
2022-08-04T23:12:27.923Z,99631.44
2022-08-04T23:14:57.917Z,99653.59
2022-08-04T23:17:28.589Z,99671.38
2022-08-04T23:19:59.010Z,99682.25
2022-08-04T23:22:42.299Z,99700.66
2022-08-04T23:25:16.398Z,99724.13
2022-08-04T23:27:51.105Z,99732.19
2022-08-04T23:30:30.318Z,99756.59
2022-08-04T23:32:58.981Z,99753.50
2022-08-04T23:35:27.288Z,99749.31
2022-08-04T23:37:56.953Z,99751.78
2022-08-04T23:40:33.995Z,99745.22
2022-08-04T23:43:12.401Z,99763.16
2022-08-04T23:46:05.205Z,99771.56
2022-08-04T23:48:36.669Z,99774.94
2022-08-04T23:51:14.452Z,99788.94
2022-08-04T23:54:03.347Z,99789.97
2022-08-04T23:56:35.639Z,99817.41
2022-08-04T23:59:06.190Z,99832.75
